Time;durP1;ratioP1;P1;durP2;ratioP2;P2;SDS_P1;SDS_P2;PMS_P1;PMS_P2;Temp;Humidity;BMP_temperature;BMP_pressure;BME280_temperature;BME280_humidity;BME280_pressure;Samples;Min_cycle;Max_cycle;Signal;HPM_P1;HPM_P2
2022/01/08 00:01:30;;;;;;;12.35;1.73;;;4.00;87.30;;;;;;5093137;27;20074;-69
2022/01/08 00:03:55;;;;;;;7.70;1.40;;;4.00;87.20;;;;;;5131808;27;20075;-69
2022/01/08 00:06:21;;;;;;;15.13;3.03;;;3.90;87.20;;;;;;5132440;27;20759;-69
2022/01/08 00:08:48;;;;;;;6.53;1.45;;;3.90;87.20;;;;;;5131802;27;20054;-69
2022/01/08 00:11:18;;;;;;;4.53;1.70;;;3.80;87.20;;;;;;5109309;27;20046;-69
2022/01/08 00:13:44;;;;;;;3.72;1.40;;;3.80;87.10;;;;;;5123299;27;20078;-69
2022/01/08 00:16:10;;;;;;;6.90;1.67;;;3.70;87.30;;;;;;5110226;27;20488;-69
2022/01/08 00:18:35;;;;;;;5.13;1.42;;;3.60;87.40;;;;;;5131286;27;20100;-69
2022/01/08 00:21:01;;;;;;;10.57;1.70;;;3.70;87.40;;;;;;5113100;27;20480;-69
2022/01/08 00:23:27;;;;;;;4.38;1.40;;;3.60;87.40;;;;;;5112049;27;20063;-69
2022/01/08 00:25:53;;;;;;;5.70;1.58;;;3.60;87.50;;;;;;5126686;27;20136;-69
2022/01/08 00:28:18;;;;;;;3.33;1.10;;;3.60;87.40;;;;;;5125266;27;21074;-69
2022/01/08 00:30:45;;;;;;;5.88;1.27;;;3.60;87.40;;;;;;5130797;27;20047;-69
2022/01/08 00:33:10;;;;;;;8.65;2.00;;;3.50;87.40;;;;;;5130951;27;20039;-68
2022/01/08 00:35:36;;;;;;;5.65;1.30;;;3.60;87.40;;;;;;5130048;27;20046;-69
2022/01/08 00:38:02;;;;;;;7.57;1.50;;;3.60;87.40;;;;;;5131057;27;20043;-69
2022/01/08 00:40:28;;;;;;;3.65;1.33;;;3.60;87.30;;;;;;5124299;27;20050;-69
2022/01/08 00:42:55;;;;;;;4.57;1.20;;;3.50;87.40;;;;;;5112982;27;20594;-69
2022/01/08 00:45:20;;;;;;;4.90;1.30;;;3.50;87.50;;;;;;5130708;27;20035;-68
2022/01/08 00:47:46;;;;;;;3.95;1.15;;;3.60;87.30;;;;;;5130844;27;20403;-68
2022/01/08 00:50:12;;;;;;;5.88;1.33;;;3.60;87.30;;;;;;5129864;27;20392;-69
2022/01/08 00:52:39;;;;;;;10.68;1.58;;;3.60;87.30;;;;;;5120205;27;20427;-69
2022/01/08 00:55:06;;;;;;;10.15;1.77;;;3.60;87.20;;;;;;5113843;27;20042;-68
2022/01/08 00:57:31;;;;;;;5.75;1.88;;;3.60;87.10;;;;;;5130577;27;20776;-68
2022/01/08 00:59:57;;;;;;;1.58;0.90;;;3.70;86.70;;;;;;5130450;27;20034;-68
2022/01/08 01:02:22;;;;;;;3.20;1.25;;;3.60;87.00;;;;;;5131311;27;20047;-68
2022/01/08 01:04:48;;;;;;;4.55;1.20;;;3.40;87.70;;;;;;5129867;27;20388;-69
2022/01/08 01:07:14;;;;;;;5.07;1.00;;;3.30;87.90;;;;;;5115208;27;20135;-68
2022/01/08 01:09:39;;;;;;;3.20;0.82;;;3.20;88.10;;;;;;5129039;27;20079;-68
2022/01/08 01:12:06;;;;;;;2.22;1.35;;;3.20;87.80;;;;;;5129272;27;20476;-68
2022/01/08 01:14:31;;;;;;;5.95;2.55;;;3.20;88.00;;;;;;5127057;27;20050;-69
2022/01/08 01:16:57;;;;;;;3.90;0.90;;;3.20;88.10;;;;;;5100491;27;20051;-69
2022/01/08 01:19:23;;;;;;;1.95;0.90;;;3.20;88.40;;;;;;5130336;27;20047;-68
2022/01/08 01:21:50;;;;;;;7.82;1.25;;;3.20;88.40;;;;;;5121713;27;20082;-69
2022/01/08 01:24:20;;;;;;;1.52;1.00;;;3.20;88.50;;;;;;5110953;27;20088;-69
2022/01/08 01:27:14;;;;;;;3.38;0.90;;;3.20;88.60;;;;;;5111835;27;20122;-69
2022/01/08 01:29:50;;;;;;;5.47;1.10;;;3.30;88.70;;;;;;5114755;27;20039;-68
2022/01/08 01:46:59;;;;;;;3.83;1.10;;;3.20;88.50;;;;;;5129356;27;20051;-68
2022/01/08 01:49:00;;;;;;;4.18;1.20;;;3.10;88.60;;;;;;5097307;27;20047;-68
2022/01/08 01:51:25;;;;;;;5.15;1.70;;;3.10;88.80;;;;;;5119162;27;20580;-68
2022/01/08 01:53:51;;;;;;;8.00;1.58;;;3.20;89.00;;;;;;5121896;27;20043;-68
2022/01/08 01:56:18;;;;;;;2.25;1.15;;;3.20;88.90;;;;;;5121570;27;20079;-68
2022/01/08 01:58:45;;;;;;;5.65;1.13;;;3.20;88.90;;;;;;5112287;27;20050;-68
2022/01/08 02:01:11;;;;;;;1.60;0.90;;;3.30;89.10;;;;;;5129450;27;20444;-68
2022/01/08 02:03:37;;;;;;;5.68;1.10;;;3.30;89.00;;;;;;5129741;27;20040;-68
2022/01/08 02:06:02;;;;;;;3.78;1.05;;;3.30;89.00;;;;;;5129791;27;20047;-68
2022/01/08 02:08:29;;;;;;;2.70;1.20;;;3.40;89.20;;;;;;5129757;27;20054;-68
2022/01/08 02:10:55;;;;;;;4.90;1.13;;;3.40;88.90;;;;;;5129578;27;20084;-69
2022/01/08 02:13:26;;;;;;;7.15;1.30;;;3.50;88.80;;;;;;5110416;27;20051;-68
2022/01/08 02:15:54;;;;;;;6.70;1.10;;;3.60;88.60;;;;;;5111365;27;20403;-68
2022/01/08 02:18:21;;;;;;;7.57;1.40;;;3.60;88.30;;;;;;5126669;27;20039;-68
2022/01/08 02:20:47;;;;;;;9.95;1.17;;;3.60;88.20;;;;;;5129631;27;20085;-68
2022/01/08 02:23:13;;;;;;;2.75;1.10;;;3.60;88.20;;;;;;5124806;27;20455;-68
2022/01/08 02:25:38;;;;;;;5.15;1.00;;;3.60;88.30;;;;;;5092418;27;20087;-68
2022/01/08 02:28:06;;;;;;;4.03;1.73;;;3.60;88.20;;;;;;5130103;27;20078;-68
2022/01/08 02:30:33;;;;;;;5.47;1.10;;;3.60;88.30;;;;;;5102764;28;20050;-68
2022/01/08 02:32:58;;;;;;;4.28;1.92;;;3.70;88.30;;;;;;5129217;28;20122;-68
2022/01/08 02:35:25;;;;;;;2.95;1.00;;;3.70;88.30;;;;;;5104097;28;20054;-68
2022/01/08 02:37:51;;;;;;;4.20;1.27;;;3.70;88.20;;;;;;5123108;27;20466;-68
2022/01/08 02:40:21;;;;;;;3.55;1.20;;;3.70;88.20;;;;;;5129334;28;20134;-68
2022/01/08 02:43:01;;;;;;;5.85;1.27;;;3.70;88.20;;;;;;5128735;27;20042;-68
2022/01/08 02:45:28;;;;;;;2.42;1.02;;;3.80;88.20;;;;;;5105158;28;20079;-68
2022/01/08 02:47:55;;;;;;;2.72;1.02;;;3.80;88.20;;;;;;5129072;27;20082;-68
2022/01/08 02:50:21;;;;;;;3.35;1.17;;;3.80;88.20;;;;;;5123108;27;20406;-68
2022/01/08 02:52:48;;;;;;;3.97;0.88;;;3.80;88.20;;;;;;5119973;28;20039;-68
2022/01/08 02:55:15;;;;;;;5.95;1.08;;;3.80;88.20;;;;;;5129563;28;20118;-68
2022/01/08 02:57:41;;;;;;;5.55;0.90;;;3.80;88.10;;;;;;5129212;28;20047;-68
2022/01/08 03:00:09;;;;;;;4.88;1.00;;;3.70;88.10;;;;;;5110917;28;20468;-68
2022/01/08 03:02:39;;;;;;;4.50;1.00;;;3.70;88.10;;;;;;5128059;28;20035;-68
2022/01/08 03:05:07;;;;;;;4.10;1.17;;;3.70;88.00;;;;;;5128608;28;20086;-68
2022/01/08 03:07:33;;;;;;;3.38;0.98;;;3.70;87.90;;;;;;5127970;27;20096;-68
2022/01/08 03:09:58;;;;;;;4.47;1.17;;;3.60;87.70;;;;;;5133058;27;20043;-68
2022/01/08 03:12:27;;;;;;;3.20;1.15;;;3.60;87.80;;;;;;5130801;27;20031;-68
2022/01/08 03:14:53;;;;;;;4.47;1.38;;;3.60;87.80;;;;;;5132718;27;20039;-68
2022/01/08 03:17:18;;;;;;;5.53;1.00;;;3.50;87.80;;;;;;5124758;27;20035;-68
2022/01/08 03:19:44;;;;;;;7.22;1.20;;;3.50;87.90;;;;;;5115027;27;20050;-68
2022/01/08 03:22:10;;;;;;;4.00;1.02;;;3.50;87.80;;;;;;5129880;27;20089;-68
2022/01/08 03:24:36;;;;;;;3.92;1.48;;;3.40;87.70;;;;;;5126695;27;20495;-68
2022/01/08 03:27:02;;;;;;;7.85;1.63;;;3.40;87.70;;;;;;5132836;27;20086;-68
2022/01/08 03:29:28;;;;;;;5.43;1.35;;;3.30;87.70;;;;;;5126772;27;20067;-68
2022/01/08 03:31:54;;;;;;;4.15;1.10;;;3.30;87.70;;;;;;5130459;27;20152;-68
2022/01/08 03:34:20;;;;;;;3.08;1.00;;;3.30;87.70;;;;;;5127872;27;20039;-68
2022/01/08 03:36:45;;;;;;;11.07;1.50;;;3.30;87.80;;;;;;5114195;27;20130;-68
2022/01/08 03:39:11;;;;;;;9.68;1.13;;;3.30;87.80;;;;;;5124753;27;20058;-68
2022/01/08 03:41:37;;;;;;;6.50;1.75;;;3.30;88.00;;;;;;5128908;27;20050;-69
2022/01/08 03:44:03;;;;;;;5.30;1.30;;;3.30;87.90;;;;;;5113695;27;20474;-68
2022/01/08 03:46:33;;;;;;;6.68;1.60;;;3.20;88.00;;;;;;5114110;27;20100;-68
2022/01/08 03:51:28;;;;;;;7.38;1.20;;;3.20;88.20;;;;;;5131576;27;20039;-68
2022/01/08 03:53:54;;;;;;;7.90;1.13;;;3.20;88.40;;;;;;5123860;27;20504;-68
2022/01/08 03:56:20;;;;;;;5.50;1.10;;;3.10;88.50;;;;;;5112495;27;20054;-68
2022/01/08 03:58:45;;;;;;;17.02;3.60;;;3.20;88.80;;;;;;5131823;27;20039;-68
2022/01/08 04:01:11;;;;;;;5.78;1.52;;;3.10;88.90;;;;;;5131625;27;20420;-69
2022/01/08 04:03:37;;;;;;;6.70;1.50;;;3.10;89.00;;;;;;5131941;27;20499;-69
2022/01/08 04:06:02;;;;;;;5.13;1.40;;;3.00;89.50;;;;;;5125913;27;20462;-69
2022/01/08 04:08:28;;;;;;;4.35;1.20;;;3.10;89.60;;;;;;5117206;27;20491;-69
2022/01/08 04:10:54;;;;;;;5.10;1.83;;;3.10;89.50;;;;;;5109280;28;20044;-69
2022/01/08 04:13:26;;;;;;;5.68;1.50;;;3.10;89.60;;;;;;5114925;27;20415;-70
2022/01/08 04:15:56;;;;;;;5.65;1.55;;;3.20;89.40;;;;;;5127107;27;20040;-69
2022/01/08 04:18:22;;;;;;;6.03;1.15;;;3.20;89.40;;;;;;5085848;27;20047;-69
2022/01/08 04:23:32;;;;;;;6.10;1.27;;;3.20;89.30;;;;;;5119607;27;20050;-69
2022/01/08 04:25:58;;;;;;;6.65;1.15;;;3.20;89.30;;;;;;5130561;27;20091;-69
2022/01/08 04:28:24;;;;;;;7.60;1.23;;;3.20;89.30;;;;;;5131791;27;20051;-69
2022/01/08 04:30:49;;;;;;;5.38;1.10;;;3.20;89.30;;;;;;5124095;27;20046;-69
2022/01/08 04:33:15;;;;;;;4.93;1.00;;;3.20;89.20;;;;;;5107962;27;20131;-69
2022/01/08 04:35:40;;;;;;;4.35;1.35;;;3.20;89.10;;;;;;5095789;27;20043;-69
2022/01/08 04:38:06;;;;;;;3.58;1.10;;;3.20;89.10;;;;;;5132154;27;20052;-69
2022/01/08 04:40:33;;;;;;;3.92;0.95;;;3.20;89.10;;;;;;5126256;27;20044;-69
2022/01/08 04:43:02;;;;;;;5.53;1.10;;;3.20;89.10;;;;;;5122985;27;20150;-70
2022/01/08 04:45:29;;;;;;;5.45;1.20;;;3.20;89.10;;;;;;5130894;27;20049;-69
2022/01/08 04:48:00;;;;;;;6.85;1.17;;;3.30;89.00;;;;;;5130429;27;20078;-68
2022/01/08 04:50:28;;;;;;;11.68;1.50;;;3.30;89.00;;;;;;5129761;27;20431;-68
2022/01/08 04:52:54;;;;;;;7.47;1.70;;;3.40;88.90;;;;;;5119615;27;20131;-69
2022/01/08 04:55:21;;;;;;;2.42;1.08;;;3.40;88.80;;;;;;5094707;28;20036;-69
2022/01/08 04:57:47;;;;;;;4.93;1.23;;;3.40;88.80;;;;;;5093391;27;20048;-69
2022/01/08 05:00:14;;;;;;;6.43;1.35;;;3.40;88.80;;;;;;5130509;27;20135;-69
2022/01/08 05:02:40;;;;;;;4.68;1.30;;;3.40;88.60;;;;;;5111205;28;20043;-69
2022/01/08 05:05:06;;;;;;;4.63;1.30;;;3.40;88.70;;;;;;5122708;27;20035;-69
2022/01/08 05:07:31;;;;;;;5.68;1.48;;;3.40;88.70;;;;;;5130906;27;20039;-69
2022/01/08 05:09:57;;;;;;;7.13;1.40;;;3.40;88.70;;;;;;5112072;27;20054;-69
2022/01/08 05:12:23;;;;;;;6.68;1.33;;;3.30;88.70;;;;;;5095086;28;20055;-69
2022/01/08 05:14:49;;;;;;;9.68;1.35;;;3.30;88.70;;;;;;5108347;27;20031;-69
2022/01/08 05:17:14;;;;;;;8.18;1.50;;;3.30;88.70;;;;;;5096218;28;20039;-69
2022/01/08 05:19:46;;;;;;;6.72;1.25;;;3.40;88.70;;;;;;5123721;27;20043;-69
2022/01/08 05:22:20;;;;;;;10.57;1.58;;;3.40;88.70;;;;;;5127478;27;20035;-69
2022/01/08 05:24:46;;;;;;;7.55;2.45;;;3.40;88.70;;;;;;5129211;27;20053;-69
2022/01/08 05:27:17;;;;;;;9.73;1.58;;;3.40;88.60;;;;;;5122959;27;20043;-69
2022/01/08 05:29:44;;;;;;;7.15;1.73;;;3.40;88.50;;;;;;5110533;27;20058;-69
2022/01/08 05:32:16;;;;;;;5.35;1.40;;;3.50;88.50;;;;;;5125655;27;20100;-69
2022/01/08 05:34:44;;;;;;;12.85;1.70;;;3.50;88.50;;;;;;5121172;27;20555;-68
2022/01/08 05:37:11;;;;;;;9.65;1.30;;;3.40;88.40;;;;;;5108802;27;20092;-69
2022/01/08 05:39:36;;;;;;;7.00;1.38;;;3.40;88.00;;;;;;5127917;27;20122;-69
2022/01/08 05:42:02;;;;;;;5.60;1.50;;;3.40;88.00;;;;;;5129812;27;20039;-69
2022/01/08 05:44:28;;;;;;;6.78;1.42;;;3.30;87.90;;;;;;5129686;27;20492;-69
2022/01/08 05:46:53;;;;;;;3.95;1.23;;;3.20;87.60;;;;;;5129014;27;20456;-68
2022/01/08 05:49:19;;;;;;;10.93;2.85;;;3.10;87.50;;;;;;5124732;27;20550;-67
2022/01/08 05:51:45;;;;;;;4.03;1.75;;;3.10;87.40;;;;;;5130755;27;20108;-68
2022/01/08 05:54:10;;;;;;;8.95;1.55;;;3.20;87.40;;;;;;5130128;27;20518;-68
2022/01/08 05:56:36;;;;;;;5.05;1.05;;;3.10;87.40;;;;;;5129362;27;20129;-68
2022/01/08 05:59:02;;;;;;;3.40;1.20;;;3.00;87.10;;;;;;5125273;27;20442;-68
2022/01/08 06:01:28;;;;;;;6.25;1.30;;;3.00;87.10;;;;;;5113185;27;20050;-68
2022/01/08 06:03:53;;;;;;;5.03;2.58;;;3.00;87.30;;;;;;5126444;27;20031;-68
2022/01/08 06:06:19;;;;;;;4.07;1.10;;;3.00;87.40;;;;;;5112074;27;20143;-67
2022/01/08 06:08:45;;;;;;;6.30;1.40;;;3.00;87.40;;;;;;5120891;27;20055;-69
2022/01/08 06:11:10;;;;;;;7.15;2.65;;;3.00;87.40;;;;;;5111427;27;20076;-69
2022/01/08 06:13:36;;;;;;;4.82;1.10;;;2.90;87.30;;;;;;5129463;27;20039;-69
2022/01/08 06:16:02;;;;;;;6.93;1.52;;;3.00;87.40;;;;;;5130278;27;20463;-69
2022/01/08 06:18:28;;;;;;;3.70;1.13;;;3.00;87.60;;;;;;5129313;27;20123;-69
2022/01/08 06:20:55;;;;;;;5.38;1.52;;;2.90;87.80;;;;;;5129528;27;20043;-69
2022/01/08 06:23:21;;;;;;;3.70;1.40;;;2.90;87.90;;;;;;5129159;27;20129;-69
2022/01/08 06:25:47;;;;;;;5.97;1.60;;;2.90;88.10;;;;;;5129355;27;20126;-69
2022/01/08 06:28:13;;;;;;;9.18;1.30;;;2.90;88.30;;;;;;5128759;27;20047;-69
2022/01/08 06:30:38;;;;;;;7.35;1.58;;;2.90;88.10;;;;;;5129545;27;20467;-69
2022/01/08 06:33:04;;;;;;;5.10;1.20;;;2.90;88.20;;;;;;5110279;28;20039;-69
2022/01/08 06:35:29;;;;;;;10.27;1.92;;;2.90;88.60;;;;;;5110979;28;20051;-68
2022/01/08 06:37:55;;;;;;;7.15;1.10;;;3.00;88.50;;;;;;5111795;28;20043;-68
2022/01/08 06:40:21;;;;;;;11.70;1.80;;;3.00;88.40;;;;;;5127143;28;20031;-69
2022/01/08 06:42:46;;;;;;;7.20;1.63;;;2.90;88.30;;;;;;5093500;28;20110;-69
2022/01/08 06:45:12;;;;;;;14.32;1.92;;;2.90;88.20;;;;;;5125483;27;20053;-69
2022/01/08 06:47:38;;;;;;;11.60;1.63;;;2.90;88.50;;;;;;5134298;27;20062;-69
2022/01/08 06:50:12;;;;;;;8.38;2.10;;;2.90;88.50;;;;;;5132733;27;20139;-69
2022/01/08 06:52:38;;;;;;;11.85;3.25;;;3.00;88.40;;;;;;5133186;27;20035;-69
2022/01/08 06:55:05;;;;;;;9.05;1.95;;;2.90;88.50;;;;;;5096519;27;20047;-69
2022/01/08 06:57:30;;;;;;;13.45;2.33;;;2.90;88.50;;;;;;5111577;27;20510;-69
2022/01/08 06:59:56;;;;;;;5.30;1.60;;;2.90;88.40;;;;;;5132951;27;20189;-69
2022/01/08 07:02:22;;;;;;;3.88;1.52;;;2.90;88.40;;;;;;5132526;27;20138;-68
2022/01/08 07:04:47;;;;;;;4.88;1.80;;;2.80;88.50;;;;;;5133143;27;20394;-68
2022/01/08 07:07:13;;;;;;;10.35;2.00;;;2.90;88.60;;;;;;5133198;27;20047;-68
2022/01/08 07:09:39;;;;;;;12.20;1.77;;;2.90;88.40;;;;;;5132363;27;20532;-68
2022/01/08 07:12:05;;;;;;;5.88;1.77;;;2.90;88.60;;;;;;5133692;27;20035;-68
2022/01/08 07:14:30;;;;;;;6.78;1.70;;;2.90;88.50;;;;;;5110447;28;20476;-69
2022/01/08 07:16:56;;;;;;;13.40;1.73;;;2.90;88.30;;;;;;5112818;28;20126;-67
2022/01/08 07:19:21;;;;;;;8.50;1.45;;;2.90;88.80;;;;;;5126479;27;20043;-69
2022/01/08 07:21:47;;;;;;;9.18;1.73;;;3.10;88.60;;;;;;5124180;27;20159;-69
2022/01/08 07:24:13;;;;;;;6.45;1.67;;;3.10;88.30;;;;;;5130633;27;20042;-69
2022/01/08 07:26:38;;;;;;;6.13;1.50;;;3.10;88.10;;;;;;5132464;27;20039;-69
2022/01/08 07:29:04;;;;;;;8.55;3.45;;;3.10;88.00;;;;;;5132212;27;20035;-69
2022/01/08 07:31:29;;;;;;;7.20;1.70;;;3.00;87.90;;;;;;5130033;27;20079;-69
2022/01/08 07:33:55;;;;;;;6.38;1.30;;;3.10;87.90;;;;;;5132746;27;20531;-68
2022/01/08 07:36:22;;;;;;;11.52;1.75;;;3.00;87.90;;;;;;5110459;27;20039;-69
2022/01/08 07:38:47;;;;;;;13.05;2.15;;;3.00;88.00;;;;;;5131639;27;20051;-69
2022/01/08 07:41:13;;;;;;;3.72;1.30;;;2.90;88.30;;;;;;5132403;27;20035;-69
2022/01/08 07:43:39;;;;;;;7.15;1.92;;;3.00;88.30;;;;;;5094174;28;20122;-68
2022/01/08 07:46:05;;;;;;;11.18;1.85;;;2.90;88.20;;;;;;5131887;27;20058;-69
2022/01/08 07:48:31;;;;;;;8.52;1.60;;;2.90;88.20;;;;;;5132459;27;20043;-70
2022/01/08 07:50:56;;;;;;;9.80;1.88;;;3.00;88.20;;;;;;5131952;27;20032;-70
2022/01/08 07:53:22;;;;;;;4.95;1.65;;;3.00;88.20;;;;;;5128535;27;20048;-69
2022/01/08 07:55:48;;;;;;;6.93;1.35;;;3.00;88.20;;;;;;5127503;27;20122;-70
2022/01/08 07:58:13;;;;;;;10.73;1.95;;;3.00;88.20;;;;;;5125442;27;20041;-70
2022/01/08 08:00:39;;;;;;;7.25;1.50;;;3.10;88.10;;;;;;5132225;27;20465;-69
2022/01/08 08:03:04;;;;;;;6.00;1.50;;;3.10;88.10;;;;;;5132113;27;20037;-69
2022/01/08 08:05:31;;;;;;;16.02;1.80;;;3.10;88.00;;;;;;5130896;27;20043;-70
2022/01/08 08:07:57;;;;;;;7.78;1.40;;;3.10;88.10;;;;;;5119041;27;20046;-69
2022/01/08 08:10:25;;;;;;;6.90;1.52;;;3.10;88.00;;;;;;5103958;27;20141;-69
2022/01/08 08:12:53;;;;;;;9.73;2.28;;;3.10;88.10;;;;;;5131166;27;20039;-68
2022/01/08 08:15:20;;;;;;;5.80;1.63;;;3.00;87.90;;;;;;5131290;27;20452;-69
2022/01/08 08:17:46;;;;;;;8.77;1.48;;;3.10;88.00;;;;;;5110816;27;20130;-69
2022/01/08 08:20:12;;;;;;;6.57;2.15;;;3.10;88.00;;;;;;5107153;27;20126;-70
2022/01/08 08:22:39;;;;;;;13.30;2.95;;;3.20;88.00;;;;;;5129934;27;20035;-69
2022/01/08 08:25:06;;;;;;;6.80;1.38;;;3.50;88.50;;;;;;5111925;27;20372;-71
2022/01/08 08:27:32;;;;;;;5.75;1.23;;;3.60;88.70;;;;;;5131795;27;20048;-71
2022/01/08 08:29:58;;;;;;;8.63;2.08;;;3.70;87.90;;;;;;5128820;27;20042;-71
2022/01/08 08:32:23;;;;;;;6.38;2.30;;;3.70;87.30;;;;;;5131806;27;20113;-71
2022/01/08 08:34:51;;;;;;;7.82;1.63;;;3.60;87.10;;;;;;5131561;27;20052;-71
2022/01/08 08:37:17;;;;;;;7.45;2.10;;;3.60;87.20;;;;;;5130198;27;20042;-71
2022/01/08 08:39:42;;;;;;;10.98;1.80;;;3.60;87.40;;;;;;5131981;27;20043;-72
2022/01/08 08:42:08;;;;;;;6.85;1.67;;;3.50;87.50;;;;;;5129524;27;20039;-71
2022/01/08 08:44:35;;;;;;;9.60;2.17;;;3.50;87.60;;;;;;5096248;27;20039;-71
2022/01/08 08:47:00;;;;;;;14.85;2.08;;;3.50;87.60;;;;;;5131471;27;20043;-71
2022/01/08 08:49:26;;;;;;;7.28;1.73;;;3.50;87.70;;;;;;5130774;27;20472;-71
2022/01/08 08:51:53;;;;;;;15.57;3.63;;;3.60;87.70;;;;;;5111092;27;20126;-71
2022/01/08 08:54:20;;;;;;;12.43;2.03;;;3.60;87.70;;;;;;5130990;27;20096;-71
2022/01/08 08:56:45;;;;;;;9.13;2.03;;;3.60;87.70;;;;;;5112860;27;20124;-71
2022/01/08 08:59:11;;;;;;;9.93;1.92;;;3.60;87.60;;;;;;5112875;27;20131;-71
2022/01/08 09:01:37;;;;;;;10.07;1.90;;;3.60;87.60;;;;;;5113245;27;20103;-71
2022/01/08 09:04:03;;;;;;;10.48;1.95;;;3.60;87.50;;;;;;5112831;27;20376;-72
2022/01/08 09:06:30;;;;;;;6.38;1.67;;;3.60;87.60;;;;;;5130327;27;20063;-72
2022/01/08 09:08:56;;;;;;;15.30;2.30;;;3.60;87.60;;;;;;5112228;27;20061;-71
2022/01/08 09:11:21;;;;;;;6.53;1.85;;;3.60;87.50;;;;;;5095483;27;20499;-72
2022/01/08 09:13:47;;;;;;;8.20;1.67;;;3.60;87.50;;;;;;5131590;27;20051;-72
2022/01/08 09:16:13;;;;;;;8.18;1.77;;;3.70;87.50;;;;;;5112089;27;20407;-72
2022/01/08 09:18:39;;;;;;;5.65;1.50;;;3.70;87.50;;;;;;5112865;27;20047;-72
2022/01/08 09:21:06;;;;;;;13.73;2.40;;;3.70;87.30;;;;;;5095241;27;20562;-71
2022/01/08 09:23:31;;;;;;;6.70;1.98;;;3.70;87.40;;;;;;5111836;27;20090;-72
2022/01/08 09:25:58;;;;;;;11.23;1.88;;;3.70;87.50;;;;;;5094467;27;20031;-70
2022/01/08 09:28:24;;;;;;;11.45;2.50;;;3.70;87.60;;;;;;5111795;27;20616;-71
2022/01/08 09:30:50;;;;;;;8.27;2.47;;;3.70;87.80;;;;;;5131100;27;20047;-71
2022/01/08 09:33:16;;;;;;;11.70;2.47;;;3.80;87.80;;;;;;5130610;27;20534;-71
2022/01/08 09:35:42;;;;;;;15.30;2.70;;;3.80;87.80;;;;;;5114560;27;20201;-71
2022/01/08 09:38:07;;;;;;;14.23;2.40;;;3.90;87.80;;;;;;5119588;27;20050;-71
2022/01/08 09:40:33;;;;;;;9.57;2.35;;;3.90;87.90;;;;;;5113327;27;20553;-71
2022/01/08 09:42:59;;;;;;;12.05;2.67;;;3.90;88.10;;;;;;5110584;28;20126;-71
2022/01/08 09:45:24;;;;;;;8.50;2.40;;;3.90;88.20;;;;;;5110339;28;20050;-71
2022/01/08 09:47:50;;;;;;;12.43;2.50;;;3.90;88.10;;;;;;5125590;27;20047;-71
2022/01/08 09:50:17;;;;;;;18.33;3.42;;;4.00;88.00;;;;;;5124467;27;20051;-71
2022/01/08 09:52:42;;;;;;;10.50;2.85;;;3.90;87.90;;;;;;5101164;27;20055;-71
2022/01/08 09:55:09;;;;;;;8.25;2.65;;;3.90;88.00;;;;;;5102115;28;20126;-71
2022/01/08 09:57:34;;;;;;;7.82;2.38;;;3.90;88.10;;;;;;5111401;27;20088;-69
2022/01/08 10:00:00;;;;;;;8.43;2.38;;;3.90;88.20;;;;;;5128841;27;20483;-72
2022/01/08 10:02:26;;;;;;;6.75;2.03;;;3.80;88.30;;;;;;5111282;27;20054;-72
2022/01/08 10:04:52;;;;;;;16.90;5.50;;;3.90;88.40;;;;;;5128260;27;20054;-72
2022/01/08 10:07:23;;;;;;;15.38;3.38;;;3.80;88.40;;;;;;5128154;27;20047;-72
2022/01/08 10:10:15;;;;;;;16.88;3.60;;;3.80;88.30;;;;;;5126027;27;20127;-72
2022/01/08 10:12:44;;;;;;;15.98;2.80;;;3.80;88.50;;;;;;5110630;27;20499;-72
2022/01/08 10:17:57;;;;;;;8.38;2.33;;;3.80;88.40;;;;;;5108854;28;20491;-71
2022/01/08 10:20:32;;;;;;;8.77;2.67;;;3.80;88.40;;;;;;5109382;27;20055;-72
2022/01/08 10:23:12;;;;;;;10.50;2.65;;;3.90;88.50;;;;;;5129575;27;20653;-72
2022/01/08 10:25:41;;;;;;;12.50;2.70;;;3.90;88.30;;;;;;5099634;28;20727;-72
2022/01/08 10:28:07;;;;;;;7.93;2.30;;;3.90;88.10;;;;;;5101395;28;20498;-72
2022/01/08 10:30:32;;;;;;;10.13;3.28;;;3.90;88.30;;;;;;5119118;27;20047;-71
2022/01/08 10:33:00;;;;;;;8.63;2.58;;;3.90;88.20;;;;;;5091439;28;20050;-71
2022/01/08 10:35:48;;;;;;;9.50;2.60;;;4.00;88.30;;;;;;5104048;28;20530;-71
2022/01/08 10:38:14;;;;;;;12.30;2.88;;;4.10;88.20;;;;;;5126183;28;20126;-71
2022/01/08 10:40:40;;;;;;;16.10;3.03;;;4.00;88.10;;;;;;5108262;28;20466;-71
2022/01/08 10:43:41;;;;;;;10.23;2.60;;;4.00;88.10;;;;;;5130222;28;20039;-71
2022/01/08 10:46:18;;;;;;;12.57;2.47;;;4.10;87.70;;;;;;5049165;28;20044;-71
2022/01/08 10:48:46;;;;;;;10.60;4.05;;;4.10;87.90;;;;;;5103419;28;20062;-71
2022/01/08 10:51:12;;;;;;;13.07;2.70;;;4.00;87.70;;;;;;5109751;28;20094;-71
2022/01/08 10:53:55;;;;;;;13.35;2.97;;;4.00;87.70;;;;;;5086747;28;20075;-76
2022/01/08 10:56:43;;;;;;;13.27;3.28;;;4.10;87.70;;;;;;5126002;28;20122;-74
2022/01/08 10:59:11;;;;;;;18.30;4.30;;;4.10;87.70;;;;;;5129024;28;20035;-74
2022/01/08 11:01:37;;;;;;;8.38;3.10;;;4.10;87.80;;;;;;5110565;28;20049;-74
2022/01/08 11:04:03;;;;;;;15.32;5.53;;;4.10;87.80;;;;;;5122531;28;20047;-74
2022/01/08 11:06:30;;;;;;;17.95;3.40;;;4.10;87.70;;;;;;5127350;28;20138;-74
2022/01/08 11:09:00;;;;;;;10.20;3.33;;;4.20;87.70;;;;;;5127576;28;20070;-74
2022/01/08 11:11:29;;;;;;;7.60;3.13;;;4.20;87.80;;;;;;5128630;28;20042;-73
2022/01/08 11:14:04;;;;;;;12.88;4.50;;;4.20;87.70;;;;;;5124794;28;20503;-75
2022/01/08 11:16:30;;;;;;;12.75;3.88;;;4.20;87.70;;;;;;5090119;28;20046;-75
2022/01/08 11:18:57;;;;;;;8.10;3.40;;;4.20;87.70;;;;;;5104958;28;20043;-74
2022/01/08 11:21:24;;;;;;;8.77;3.33;;;4.30;87.80;;;;;;5106361;28;20502;-74
2022/01/08 11:23:50;;;;;;;13.02;3.92;;;4.40;87.80;;;;;;5099342;28;20048;-74
2022/01/08 11:26:16;;;;;;;11.90;4.05;;;4.40;87.70;;;;;;5111032;28;20083;-74
2022/01/08 11:28:46;;;;;;;10.45;4.22;;;4.50;87.60;;;;;;5106646;28;20129;-74
2022/01/08 11:31:15;;;;;;;12.35;4.43;;;4.50;87.70;;;;;;5099752;27;20054;-75
2022/01/08 11:33:44;;;;;;;9.90;4.10;;;4.50;87.60;;;;;;5112610;27;20095;-74
2022/01/08 11:36:12;;;;;;;12.05;5.47;;;4.60;87.60;;;;;;5114547;27;20415;-74
2022/01/08 11:38:38;;;;;;;14.48;3.35;;;4.60;87.60;;;;;;5114813;27;20051;-74
2022/01/08 11:41:04;;;;;;;10.63;3.38;;;4.60;87.50;;;;;;5105515;27;20507;-74
2022/01/08 11:43:30;;;;;;;13.48;3.92;;;4.60;87.50;;;;;;5113717;27;20051;-74
2022/01/08 11:46:07;;;;;;;8.55;3.33;;;4.60;87.40;;;;;;5131582;27;20041;-73
2022/01/08 11:48:37;;;;;;;11.23;3.92;;;4.60;87.40;;;;;;5110935;27;20563;-74
2022/01/08 11:51:05;;;;;;;13.90;3.95;;;4.60;87.40;;;;;;5114012;27;20035;-74
2022/01/08 11:53:34;;;;;;;9.18;3.53;;;4.60;87.40;;;;;;5132181;27;20320;-74
2022/01/08 11:56:06;;;;;;;11.73;3.80;;;4.60;87.40;;;;;;5113754;27;20095;-74
2022/01/08 11:58:34;;;;;;;14.15;3.78;;;4.60;87.50;;;;;;5112010;27;20373;-75
2022/01/08 12:01:05;;;;;;;10.57;3.58;;;4.60;87.50;;;;;;5131262;27;20051;-76
2022/01/08 12:03:50;;;;;;;15.07;4.50;;;4.60;87.50;;;;;;5113629;27;20043;-75
2022/01/08 12:06:23;;;;;;;11.90;4.80;;;4.60;87.50;;;;;;5113462;27;20051;-67
2022/01/08 12:12:00;;;;;;;14.05;4.78;;;5.60;88.00;;;;;;5125712;27;20062;-73
2022/01/08 12:14:33;;;;;;;8.70;3.75;;;5.60;86.50;;;;;;5109329;27;20542;-75
2022/01/08 12:17:19;;;;;;;11.32;4.75;;;5.70;86.00;;;;;;5113865;27;20043;-74
2022/01/08 12:19:46;;;;;;;10.63;5.00;;;5.60;85.50;;;;;;5114339;27;20122;-74
2022/01/08 12:22:20;;;;;;;11.13;5.15;;;5.20;85.10;;;;;;5114216;27;20406;-74
2022/01/08 12:24:52;;;;;;;15.82;4.28;;;5.10;85.50;;;;;;5096079;27;20100;-74
2022/01/08 12:27:34;;;;;;;11.40;4.72;;;5.00;85.70;;;;;;5092426;28;20040;-74
2022/01/08 12:30:23;;;;;;;;;;;4.80;85.90;;;;;;5094412;28;20043;-73
2022/01/08 12:32:51;;;;;;;10.65;4.40;;;4.70;85.30;;;;;;5089631;27;20038;-74
2022/01/08 12:35:22;;;;;;;10.23;5.15;;;4.60;85.60;;;;;;5096557;27;20120;-75
2022/01/08 12:38:02;;;;;;;6.82;4.05;;;4.60;85.40;;;;;;5113672;27;20057;-75
2022/01/08 12:40:38;;;;;;;9.65;4.75;;;4.60;85.40;;;;;;5113226;27;20071;-74
2022/01/08 12:43:23;;;;;;;10.80;4.50;;;4.50;85.70;;;;;;5111311;27;20100;-70
2022/01/08 12:45:50;;;;;;;9.52;4.18;;;4.50;86.10;;;;;;5113502;27;20518;-74
2022/01/08 12:48:20;;;;;;;7.28;3.47;;;4.50;86.10;;;;;;5112466;27;20072;-73
2022/01/08 12:50:45;;;;;;;7.38;3.17;;;4.50;86.00;;;;;;5098694;28;20074;-73
2022/01/08 12:53:13;;;;;;;7.72;2.42;;;4.40;85.90;;;;;;5108079;27;20435;-71
2022/01/08 12:55:55;;;;;;;4.68;2.72;;;4.50;86.00;;;;;;5103611;27;20063;-74
2022/01/08 12:58:29;;;;;;;;;;;4.50;86.00;;;;;;5106102;27;20050;-75
2022/01/08 13:01:01;;;;;;;5.82;2.47;;;4.40;86.00;;;;;;5095050;27;19926;-74
2022/01/08 13:03:26;;;;;;;7.82;2.67;;;4.40;86.30;;;;;;5121801;27;20062;-73
2022/01/08 13:05:53;;;;;;;5.95;3.30;;;4.40;86.10;;;;;;5082548;27;20039;-73
2022/01/08 13:08:27;;;;;;;4.35;2.20;;;4.40;86.00;;;;;;5098317;28;20563;-74
2022/01/08 13:10:57;;;;;;;5.93;2.50;;;4.40;86.00;;;;;;5094336;28;20516;-73
2022/01/08 13:13:24;;;;;;;6.78;1.88;;;4.50;86.70;;;;;;5094278;28;20603;-73
2022/01/08 13:15:52;;;;;;;4.60;2.10;;;4.60;86.10;;;;;;5097193;28;20039;-73
2022/01/08 13:18:18;;;;;;;5.88;2.28;;;4.50;85.40;;;;;;5081960;28;20075;-73
2022/01/08 13:20:44;;;;;;;4.63;3.20;;;4.50;85.40;;;;;;5096369;28;20039;-72
2022/01/08 13:23:11;;;;;;;5.72;2.50;;;4.50;85.20;;;;;;5073413;28;20439;-72